Terminal Aerodrome Forecast
Issued by NWS Duluth, MN

Home | Current Version | Previous Version | Text Only | Print | Product List | Glossary On
Versions: 1 2 3 4 5 6 7 8 9 10 11 12 13 14 15 16 17 18 19 20 21
735
FTUS43 KDLH 241142
TAFINL
TAF
KINL 241142Z 2412/2512 01007KT P6SM SCT180
     FM241500 35011KT P6SM FEW020 SCT035 BKN180
     FM242300 33014G22KT P6SM VCSH SCT013 BKN030=

USA.gov is the U.S. government's official web portal to all federal, state and local government web resources and services.